Time;durP1;ratioP1;P1;durP2;ratioP2;P2;SDS_P1;SDS_P2;PMS_P1;PMS_P2;Temp;Humidity;BMP_temperature;BMP_pressure;BME280_temperature;BME280_humidity;BME280_pressure;Samples;Min_cycle;Max_cycle;Signal;HPM_P1;HPM_P2
2022/10/06 00:00:07;;;;;;;9.70;5.47;;;;;;;8.65;nan;94827.41;4894449;29;20503;-59
2022/10/06 00:02:35;;;;;;;9.25;4.78;;;;;;;8.44;nan;94835.47;4894957;29;20386;-59
2022/10/06 00:05:02;;;;;;;9.00;5.07;;;;;;;8.40;nan;94832.69;4894855;29;20055;-59
2022/10/06 00:07:29;;;;;;;9.10;5.07;;;;;;;8.21;nan;94839.19;4895028;29;20063;-60
2022/10/06 00:09:56;;;;;;;8.32;5.10;;;;;;;8.31;nan;94830.28;4894152;29;20052;-60
2022/10/06 00:12:23;;;;;;;9.07;5.60;;;;;;;8.19;nan;94846.97;4894925;29;20044;-59
2022/10/06 00:14:50;;;;;;;9.23;4.18;;;;;;;8.26;nan;94847.00;4894027;29;20044;-58
2022/10/06 00:17:16;;;;;;;9.98;5.00;;;;;;;8.29;nan;94851.75;4890852;29;20045;-59
2022/10/06 00:19:43;;;;;;;7.50;4.30;;;;;;;8.28;nan;94850.16;4875259;29;20048;-61
2022/10/06 00:22:10;;;;;;;10.00;4.82;;;;;;;8.28;nan;94852.13;4876095;29;20047;-59
2022/10/06 00:24:37;;;;;;;9.98;5.68;;;;;;;8.30;nan;94853.31;4875855;29;20059;-59
2022/10/06 00:27:03;;;;;;;8.60;4.80;;;;;;;8.32;nan;94856.44;4875733;29;20052;-58
2022/10/06 00:29:30;;;;;;;8.50;5.38;;;;;;;8.27;nan;94848.59;4875788;29;20525;-59
2022/10/06 00:31:57;;;;;;;10.07;5.60;;;;;;;8.22;nan;94857.13;4875237;29;20055;-59
2022/10/06 00:34:24;;;;;;;13.63;9.18;;;;;;;8.14;nan;94856.28;4875804;29;20056;-60
2022/10/06 00:36:50;;;;;;;13.00;8.43;;;;;;;8.09;nan;94853.91;4874936;29;20104;-60
2022/10/06 00:39:18;;;;;;;9.73;6.35;;;;;;;8.03;nan;94854.59;4875905;29;20063;-60
2022/10/06 00:41:45;;;;;;;10.00;5.93;;;;;;;7.91;nan;94852.97;4875118;29;20060;-60
2022/10/06 00:44:12;;;;;;;9.70;6.00;;;;;;;8.06;nan;94856.59;4875633;29;20045;-60
2022/10/06 00:46:46;;;;;;;9.43;5.60;;;;;;;8.07;nan;94856.22;4875480;29;20409;-61
2022/10/06 00:49:24;;;;;;;10.32;5.93;;;;;;;8.07;nan;94860.91;4874970;29;20915;-60
2022/10/06 00:51:59;;;;;;;8.82;5.47;;;;;;;8.03;nan;94860.88;4874860;29;20055;-61
2022/10/06 00:54:27;;;;;;;8.82;5.45;;;;;;;8.04;nan;94865.16;4858087;29;20041;-60
2022/10/06 00:56:54;;;;;;;10.63;5.53;;;;;;;8.00;nan;94865.13;4875102;29;20052;-59
2022/10/06 00:59:21;;;;;;;9.70;5.65;;;;;;;7.88;nan;94865.41;4875060;29;20041;-61
2022/10/06 01:02:07;;;;;;;13.02;5.82;;;;;;;7.83;nan;94863.03;4874605;29;20057;-60
2022/10/06 01:04:37;;;;;;;10.55;6.00;;;;;;;7.79;nan;94856.75;4875461;29;20119;-63
2022/10/06 01:07:06;;;;;;;9.88;6.25;;;;;;;7.67;nan;94860.50;4874916;29;20051;-59
2022/10/06 01:09:33;;;;;;;10.23;6.10;;;;;;;7.74;nan;94854.31;4875216;29;20067;-59
2022/10/06 01:12:04;;;;;;;9.85;6.30;;;;;;;7.78;nan;94849.69;4874894;29;20063;-60
2022/10/06 01:14:31;;;;;;;9.98;6.70;;;;;;;7.78;nan;94857.88;4875302;29;20049;-60
2022/10/06 01:17:04;;;;;;;11.38;6.03;;;;;;;7.76;nan;94855.50;4859584;29;20053;-59
2022/10/06 01:19:52;;;;;;;13.27;6.20;;;;;;;7.83;nan;94846.63;4894012;29;20040;-59
2022/10/06 01:22:27;;;;;;;13.03;6.23;;;;;;;7.71;nan;94850.41;4893081;29;20760;-60
2022/10/06 01:24:54;;;;;;;11.27;6.30;;;;;;;7.80;nan;94853.59;4893028;29;20494;-59
2022/10/06 01:27:24;;;;;;;14.50;7.15;;;;;;;7.85;nan;94857.97;4893867;29;20096;-59
2022/10/06 01:29:53;;;;;;;11.65;6.53;;;;;;;7.74;nan;94848.88;4893101;29;20044;-59
2022/10/06 01:32:22;;;;;;;11.27;6.60;;;;;;;7.79;nan;94854.00;4893783;29;20041;-58
2022/10/06 01:34:49;;;;;;;11.27;6.93;;;;;;;7.78;nan;94855.94;4892969;29;20051;-59
2022/10/06 01:37:16;;;;;;;13.02;6.75;;;;;;;7.79;nan;94859.47;4893706;29;20058;-59
2022/10/06 01:39:43;;;;;;;18.00;9.32;;;;;;;7.72;nan;94862.88;4892652;29;20437;-59
2022/10/06 01:42:10;;;;;;;11.85;6.63;;;;;;;7.71;nan;94860.56;4897092;29;20045;-60
2022/10/06 01:44:36;;;;;;;10.35;6.32;;;;;;;7.71;nan;94855.09;4897583;29;20049;-63
2022/10/06 01:47:04;;;;;;;12.17;6.27;;;;;;;7.60;nan;94866.66;4897295;29;20044;-60
2022/10/06 01:49:32;;;;;;;14.40;7.65;;;;;;;7.55;nan;94872.47;4897490;29;20494;-59
2022/10/06 01:51:59;;;;;;;13.63;7.20;;;;;;;7.58;nan;94871.72;4896474;29;20057;-60
2022/10/06 01:54:26;;;;;;;12.98;6.22;;;;;;;7.51;nan;94874.38;4897429;29;20041;-58
2022/10/06 01:56:53;;;;;;;13.32;6.47;;;;;;;7.58;nan;94874.44;4896615;29;20041;-59
2022/10/06 01:59:19;;;;;;;11.30;6.50;;;;;;;7.54;nan;94879.06;4896285;29;20040;-61
2022/10/06 02:01:46;;;;;;;10.80;6.18;;;;;;;7.56;nan;94878.72;4896644;29;20049;-60
2022/10/06 02:04:13;;;;;;;12.88;6.65;;;;;;;7.53;nan;94885.72;4897463;29;20118;-58
2022/10/06 02:06:40;;;;;;;11.68;5.97;;;;;;;7.60;nan;94885.78;4896359;29;20045;-59
2022/10/06 02:09:07;;;;;;;10.20;6.28;;;;;;;7.62;nan;94890.88;4896022;29;20055;-59
2022/10/06 02:11:34;;;;;;;12.03;6.30;;;;;;;7.47;nan;94895.41;4897075;29;20103;-61
2022/10/06 02:14:01;;;;;;;19.80;12.25;;;;;;;7.50;nan;94886.44;4896523;29;20052;-60
2022/10/06 02:16:28;;;;;;;11.77;7.07;;;;;;;7.47;nan;94898.13;4897156;29;20045;-61
2022/10/06 02:18:55;;;;;;;11.57;5.85;;;;;;;7.36;nan;94905.38;4879391;29;20076;-59
2022/10/06 02:21:22;;;;;;;8.73;5.38;;;;;;;7.43;nan;94897.28;4878380;29;20397;-58
2022/10/06 02:23:50;;;;;;;8.83;5.30;;;;;;;7.40;nan;94898.03;4877587;29;20049;-59
2022/10/06 02:26:17;;;;;;;9.48;5.85;;;;;;;7.43;nan;94901.97;4878116;29;20045;-61
2022/10/06 02:28:45;;;;;;;14.35;5.93;;;;;;;7.31;nan;94903.00;4877375;29;20045;-59
2022/10/06 02:31:13;;;;;;;9.77;5.72;;;;;;;7.13;nan;94903.53;4878190;29;20043;-61
2022/10/06 02:33:40;;;;;;;12.95;6.25;;;;;;;7.17;nan;94903.59;4877189;29;20041;-61
2022/10/06 02:36:10;;;;;;;10.17;5.70;;;;;;;7.32;nan;94907.28;4861316;29;20051;-61
2022/10/06 02:38:38;;;;;;;10.95;5.93;;;;;;;7.36;nan;94908.13;4877988;29;20049;-59
2022/10/06 02:41:05;;;;;;;11.32;5.88;;;;;;;7.25;nan;94909.94;4876982;29;20053;-59
2022/10/06 02:43:33;;;;;;;12.02;5.57;;;;;;;7.28;nan;94912.69;4877822;29;20586;-61
2022/10/06 02:46:03;;;;;;;14.63;5.93;;;;;;;7.22;nan;94916.13;4876706;29;20053;-60
2022/10/06 02:48:30;;;;;;;9.53;5.87;;;;;;;7.13;nan;94917.19;4877803;29;20063;-60
2022/10/06 02:51:01;;;;;;;10.50;5.90;;;;;;;7.12;nan;94917.53;4877092;29;20783;-61
2022/10/06 02:53:28;;;;;;;10.75;6.03;;;;;;;7.13;nan;94921.88;4877690;29;20045;-60
2022/10/06 02:56:14;;;;;;;11.27;5.75;;;;;;;7.18;nan;94916.88;4877223;29;20045;-58
2022/10/06 02:58:43;;;;;;;10.98;6.20;;;;;;;7.13;nan;94917.19;4876832;29;20060;-64
2022/10/06 03:01:20;;;;;;;10.33;5.57;;;;;;;7.17;nan;94923.47;4877574;29;20532;-60
2022/10/06 03:03:47;;;;;;;10.82;5.82;;;;;;;7.22;nan;94927.03;4876966;29;20537;-60
2022/10/06 03:06:22;;;;;;;10.40;5.53;;;;;;;7.22;nan;94927.81;4877449;29;20060;-59
2022/10/06 03:09:06;;;;;;;8.82;5.32;;;;;;;7.19;nan;94943.00;4876202;29;20535;-60
2022/10/06 03:11:38;;;;;;;9.68;5.28;;;;;;;7.15;nan;94935.94;4860987;29;20051;-59
2022/10/06 03:14:06;;;;;;;11.50;6.10;;;;;;;6.90;nan;94928.16;4876283;29;20612;-59
2022/10/06 03:16:38;;;;;;;12.55;6.20;;;;;;;6.80;nan;94940.50;4877214;29;20056;-60
2022/10/06 03:19:07;;;;;;;12.27;6.43;;;;;;;6.82;nan;94939.31;4893948;29;20176;-60
2022/10/06 03:21:37;;;;;;;13.73;6.78;;;;;;;6.90;nan;94939.09;4895639;29;20045;-59
2022/10/06 03:24:04;;;;;;;10.93;6.28;;;;;;;6.93;nan;94948.47;4894953;29;20387;-61
2022/10/06 03:26:36;;;;;;;11.17;6.00;;;;;;;6.84;nan;94947.94;4895713;29;20496;-59
2022/10/06 03:29:04;;;;;;;12.40;6.22;;;;;;;6.89;nan;94950.34;4895101;29;20036;-60
2022/10/06 03:31:36;;;;;;;14.02;7.35;;;;;;;6.79;nan;94955.28;4895751;29;20057;-59
2022/10/06 03:34:03;;;;;;;14.95;6.97;;;;;;;6.82;nan;94966.59;4894613;29;20059;-59
2022/10/06 03:36:32;;;;;;;15.40;6.70;;;;;;;6.90;nan;94974.56;4895579;29;20054;-59
2022/10/06 03:39:00;;;;;;;36.57;19.97;;;;;;;6.94;nan;94975.41;4894563;29;20056;-59
2022/10/06 03:41:29;;;;;;;15.55;8.38;;;;;;;6.88;nan;94976.06;4895332;29;20051;-60
2022/10/06 03:43:57;;;;;;;14.98;7.55;;;;;;;6.93;nan;94979.28;4894517;29;20056;-60
2022/10/06 03:46:27;;;;;;;13.93;6.93;;;;;;;6.95;nan;94985.16;4895452;29;20075;-60
2022/10/06 03:48:56;;;;;;;11.70;6.15;;;;;;;6.96;nan;94980.47;4894476;29;20091;-60
2022/10/06 03:51:28;;;;;;;13.57;6.50;;;;;;;6.78;nan;94986.44;4895396;29;20052;-59
2022/10/06 03:53:57;;;;;;;11.63;6.00;;;;;;;6.85;nan;94988.50;4894300;29;20055;-60
2022/10/06 03:56:25;;;;;;;11.27;6.45;;;;;;;6.89;nan;94992.06;4895168;29;20047;-61
2022/10/06 03:58:54;;;;;;;11.32;6.22;;;;;;;6.73;nan;94992.19;4894443;29;20049;-60
2022/10/06 04:01:24;;;;;;;13.00;6.75;;;;;;;6.73;nan;94994.94;4895243;29;20043;-59
2022/10/06 04:03:56;;;;;;;11.43;6.20;;;;;;;6.79;nan;94996.19;4893931;29;20189;-61
2022/10/06 04:06:25;;;;;;;12.95;5.90;;;;;;;6.66;nan;94989.38;4893977;29;20040;-59
2022/10/06 04:08:53;;;;;;;11.95;6.38;;;;;;;6.57;nan;94997.78;4892610;29;20056;-59
2022/10/06 04:11:29;;;;;;;13.25;7.40;;;;;;;6.49;nan;95006.19;4894837;29;20044;-58
2022/10/06 04:13:59;;;;;;;14.95;7.95;;;;;;;6.38;nan;95009.53;4893967;29;20057;-59
2022/10/06 04:16:32;;;;;;;16.37;7.93;;;;;;;6.56;nan;95007.13;4894992;29;20049;-59
2022/10/06 04:19:01;;;;;;;14.18;7.68;;;;;;;6.64;nan;95010.75;4876718;29;20594;-60
2022/10/06 04:21:30;;;;;;;16.15;8.38;;;;;;;6.65;nan;95008.81;4875916;29;20052;-60
2022/10/06 04:23:58;;;;;;;21.75;13.15;;;;;;;6.62;nan;95018.53;4857060;29;20415;-59
2022/10/06 04:26:29;;;;;;;89.57;44.72;;;;;;;6.64;nan;95018.13;4876114;29;20049;-60
2022/10/06 04:28:56;;;;;;;21.20;11.87;;;;;;;6.56;nan;95020.75;4875183;29;20049;-59
2022/10/06 04:31:25;;;;;;;21.52;12.30;;;;;;;6.46;nan;95026.00;4875701;29;20053;-61
2022/10/06 04:33:55;;;;;;;24.33;12.38;;;;;;;6.41;nan;95021.63;4874622;29;20053;-60
2022/10/06 04:36:27;;;;;;;19.95;9.27;;;;;;;6.48;nan;95020.97;4875795;29;20500;-59
2022/10/06 04:38:57;;;;;;;26.27;13.00;;;;;;;6.47;nan;95019.41;4874691;29;20061;-61
2022/10/06 04:41:26;;;;;;;19.70;9.93;;;;;;;6.48;nan;95029.16;4875655;29;20075;-60
2022/10/06 04:43:54;;;;;;;21.55;10.00;;;;;;;6.46;nan;95032.25;4874983;29;20552;-60
2022/10/06 04:46:22;;;;;;;19.15;10.00;;;;;;;6.43;nan;95038.41;4875845;29;20053;-60
2022/10/06 04:49:08;;;;;;;18.42;8.88;;;;;;;6.49;nan;95033.47;4874395;29;20964;-60
2022/10/06 04:51:39;;;;;;;22.10;11.50;;;;;;;6.45;nan;95029.88;4875767;29;20045;-61
2022/10/06 04:54:05;;;;;;;20.10;10.87;;;;;;;6.51;nan;95031.16;4867067;29;20818;-61
2022/10/06 04:56:32;;;;;;;21.65;11.07;;;;;;;6.47;nan;95039.28;4875273;29;20053;-61
2022/10/06 04:58:59;;;;;;;16.30;9.35;;;;;;;6.49;nan;95042.44;4874520;29;20048;-55
2022/10/06 05:01:35;;;;;;;18.30;9.00;;;;;;;6.45;nan;95044.31;4874702;29;20048;-60
2022/10/06 05:04:04;;;;;;;18.90;9.32;;;;;;;6.33;nan;95041.75;4875535;29;20052;-60
2022/10/06 05:06:37;;;;;;;22.93;10.60;;;;;;;6.18;nan;95046.13;4875229;29;20055;-58
2022/10/06 05:09:07;;;;;;;19.30;9.48;;;;;;;6.18;nan;95043.41;4874419;29;20048;-58
2022/10/06 05:11:34;;;;;;;17.83;8.75;;;;;;;6.24;nan;95041.16;4875150;29;20041;-60
2022/10/06 05:14:01;;;;;;;18.20;8.85;;;;;;;6.28;nan;95042.81;4874488;29;20055;-58
2022/10/06 05:16:29;;;;;;;19.33;8.48;;;;;;;6.38;nan;95044.97;4874396;29;20053;-56
2022/10/06 05:18:56;;;;;;;16.27;8.10;;;;;;;6.42;nan;95042.31;4891049;29;20532;-58
2022/10/06 05:21:26;;;;;;;15.63;7.85;;;;;;;6.44;nan;95040.00;4893594;29;20055;-56
2022/10/06 05:23:53;;;;;;;13.15;7.40;;;;;;;6.48;nan;95057.22;4885819;29;20425;-57
2022/10/06 05:26:22;;;;;;;14.85;7.10;;;;;;;6.59;nan;95062.88;4865310;29;20483;-56
2022/10/06 05:28:49;;;;;;;12.98;7.22;;;;;;;6.66;nan;95057.56;4865635;29;20045;-55
2022/10/06 05:31:21;;;;;;;36.90;21.40;;;;;;;6.69;nan;95061.50;4865675;29;20049;-57
2022/10/06 05:33:49;;;;;;;25.88;13.77;;;;;;;6.44;nan;95059.09;4863911;29;20065;-56
2022/10/06 05:36:18;;;;;;;53.83;36.50;;;;;;;6.42;nan;95066.84;4865267;29;20049;-56
2022/10/06 05:38:46;;;;;;;50.25;32.97;;;;;;;6.50;nan;95070.47;4865730;29;20045;-59
2022/10/06 05:41:18;;;;;;;60.67;39.80;;;;;;;6.66;nan;95075.84;4864201;29;20047;-56
2022/10/06 05:43:46;;;;;;;21.93;13.13;;;;;;;6.74;nan;95077.53;4863889;29;20057;-56
2022/10/06 05:46:26;;;;;;;19.38;9.82;;;;;;;6.80;nan;95081.56;4849201;29;20055;-58
2022/10/06 05:48:55;;;;;;;17.25;8.63;;;;;;;6.84;nan;95085.16;4862345;29;20045;-58
2022/10/06 05:51:24;;;;;;;21.52;12.00;;;;;;;6.80;nan;95095.19;4856333;29;20049;-59
2022/10/06 05:53:59;;;;;;;22.73;13.75;;;;;;;6.72;nan;95080.66;4855641;29;20080;-59
2022/10/06 05:56:29;;;;;;;20.73;10.33;;;;;;;6.88;nan;95086.00;4856410;29;20057;-59
2022/10/06 05:58:57;;;;;;;18.27;10.57;;;;;;;6.88;nan;95088.75;4869350;29;20056;-59
2022/10/06 06:01:24;;;;;;;16.52;8.63;;;;;;;7.00;nan;95090.47;4856209;29;20045;-58
2022/10/06 06:03:59;;;;;;;16.30;8.13;;;;;;;7.08;nan;95094.91;4855949;29;20053;-59
2022/10/06 06:06:27;;;;;;;17.85;9.63;;;;;;;7.04;nan;95085.09;4855857;29;20041;-59
2022/10/06 06:08:56;;;;;;;17.83;8.50;;;;;;;7.17;nan;95100.16;4854271;29;20058;-58
2022/10/06 06:11:26;;;;;;;13.25;7.25;;;;;;;7.27;nan;95094.06;4856599;29;20048;-59
2022/10/06 06:13:58;;;;;;;15.05;8.38;;;;;;;7.37;nan;95098.91;4855907;29;20058;-61
2022/10/06 06:16:25;;;;;;;13.45;7.47;;;;;;;7.43;nan;95104.84;4840369;29;20057;-59
2022/10/06 06:18:52;;;;;;;14.52;9.30;;;;;;;7.37;nan;95106.31;4888611;29;20057;-62
2022/10/06 06:21:20;;;;;;;21.50;15.80;;;;;;;7.34;nan;95109.78;4892699;29;20051;-59
2022/10/06 06:23:48;;;;;;;15.43;9.80;;;;;;;7.22;nan;95120.88;4893220;29;20055;-59
2022/10/06 06:26:23;;;;;;;17.85;9.82;;;;;;;7.34;nan;95116.00;4893726;29;20413;-58
2022/10/06 06:28:54;;;;;;;17.10;11.10;;;;;;;7.52;nan;95127.22;4896443;29;20070;-59
2022/10/06 06:31:25;;;;;;;16.95;9.50;;;;;;;7.70;nan;95121.25;4896582;29;20048;-58
2022/10/06 06:33:55;;;;;;;15.03;9.17;;;;;;;7.94;nan;95123.56;4896264;29;20051;-59
2022/10/06 06:36:27;;;;;;;16.80;8.13;;;;;;;8.15;nan;95125.03;4896919;29;20048;-59
2022/10/06 06:38:56;;;;;;;15.07;7.57;;;;;;;8.12;nan;95112.88;4896103;29;20285;-58
2022/10/06 06:41:25;;;;;;;20.02;12.13;;;;;;;8.39;nan;95124.56;4897157;29;20045;-58
2022/10/06 06:43:52;;;;;;;17.30;10.68;;;;;;;8.51;nan;95130.97;4896382;29;20044;-60
2022/10/06 06:46:24;;;;;;;17.90;10.00;;;;;;;8.47;nan;95135.63;4880493;29;20041;-59
2022/10/06 06:48:54;;;;;;;14.18;9.02;;;;;;;8.59;nan;95138.09;4896499;29;20057;-59
2022/10/06 06:51:22;;;;;;;14.80;7.60;;;;;;;8.60;nan;95143.22;4896282;29;20037;-59
2022/10/06 06:53:50;;;;;;;13.30;7.18;;;;;;;8.78;nan;95143.44;4895649;29;20057;-59
2022/10/06 06:56:20;;;;;;;13.90;7.70;;;;;;;8.98;nan;95149.50;4896142;29;20355;-59
2022/10/06 06:58:47;;;;;;;12.93;7.50;;;;;;;9.25;nan;95145.88;4895655;29;20111;-60
2022/10/06 07:01:16;;;;;;;14.27;7.93;;;;;;;9.51;nan;95148.44;4895865;29;20063;-59
2022/10/06 07:03:54;;;;;;;14.48;7.95;;;;;;;9.76;nan;95145.16;4896036;29;20062;-60
2022/10/06 07:06:27;;;;;;;16.25;9.90;;;;;;;9.93;nan;95147.22;4896581;29;20078;-59
2022/10/06 07:08:58;;;;;;;16.20;8.98;;;;;;;10.02;nan;95154.31;4895536;29;20552;-58
2022/10/06 07:11:28;;;;;;;15.67;8.43;;;;;;;11.94;nan;95150.66;4896633;29;20082;-59
2022/10/06 07:13:58;;;;;;;12.57;6.32;;;;;;;14.45;nan;95142.22;4895727;29;20052;-63
2022/10/06 07:25:06;;;;;;;12.33;6.90;;;;;;;18.01;nan;95143.31;4858737;29;20521;-63
2022/10/06 07:27:37;;;;;;;9.77;6.10;;;;;;;18.95;nan;95148.03;4859143;29;20053;-61
2022/10/06 07:30:04;;;;;;;12.90;6.95;;;;;;;18.72;nan;95149.00;4857992;29;20382;-60
2022/10/06 07:32:31;;;;;;;11.35;7.07;;;;;;;19.94;nan;95139.91;4858552;29;20042;-60
2022/10/06 07:34:58;;;;;;;14.60;7.60;;;;;;;19.25;nan;95147.97;4856384;29;20494;-60
2022/10/06 07:37:27;;;;;;;12.43;7.67;;;;;;;18.99;nan;95150.69;4858149;29;20075;-61
2022/10/06 07:39:54;;;;;;;12.57;7.93;;;;;;;21.15;nan;95148.16;4856959;29;20042;-62
2022/10/06 07:42:21;;;;;;;15.68;9.43;;;;;;;21.31;nan;95149.97;4858555;29;20543;-59
2022/10/06 07:47:36;;;;;;;11.07;7.72;;;;;;;21.86;nan;95165.50;4858362;29;20053;-60
2022/10/06 07:50:05;;;;;;;10.77;7.00;;;;;;;23.19;nan;95157.97;4857800;29;20049;-61
2022/10/06 07:52:37;;;;;;;10.52;6.90;;;;;;;22.90;nan;95161.25;4843989;29;20060;-61
2022/10/06 07:55:05;;;;;;;15.52;7.10;;;;;;;22.95;nan;95160.63;4876587;29;20041;-60
2022/10/06 07:57:34;;;;;;;10.23;6.60;;;;;;;23.23;nan;95163.44;4876560;29;20044;-61
2022/10/06 08:00:06;;;;;;;10.60;5.70;;;;;;;23.02;nan;95168.75;4875723;29;20061;-60
2022/10/06 08:02:32;;;;;;;9.90;5.90;;;;;;;25.11;nan;95165.22;4876710;29;20049;-60
2022/10/06 08:05:01;;;;;;;10.73;5.72;;;;;;;25.66;nan;95167.56;4859351;29;20048;-59
2022/10/06 08:07:28;;;;;;;10.68;5.85;;;;;;;24.78;nan;95159.72;4876849;29;20051;-60
2022/10/06 08:09:55;;;;;;;8.88;5.93;;;;;;;25.53;nan;95169.88;4859440;29;20059;-60
2022/10/06 08:12:36;;;;;;;11.98;5.90;;;;;;;25.39;nan;95165.00;4876417;29;20040;-62
2022/10/06 08:15:05;;;;;;;8.13;5.03;;;;;;;25.63;nan;95164.94;4875723;29;20047;-58
2022/10/06 08:17:35;;;;;;;8.75;5.65;;;;;;;26.46;nan;95170.38;4882380;29;20078;-57
2022/10/06 08:20:04;;;;;;;9.10;5.20;;;;;;;25.59;nan;95165.13;4892929;29;20054;-57
2022/10/06 08:22:32;;;;;;;7.53;5.00;;;;;;;25.81;nan;95166.75;4894736;29;20053;-57
2022/10/06 08:24:59;;;;;;;8.57;5.05;;;;;;;27.70;nan;95165.44;4894535;29;20057;-57
2022/10/06 08:27:34;;;;;;;12.00;5.17;;;;;;;26.89;nan;95178.38;4895258;29;20545;-57
2022/10/06 08:30:03;;;;;;;10.00;5.30;;;;;;;27.55;nan;95176.06;4894316;29;20044;-60
2022/10/06 08:32:30;;;;;;;9.95;5.20;;;;;;;26.36;nan;95177.38;4894939;29;20475;-58
2022/10/06 08:34:57;;;;;;;7.85;4.38;;;;;;;25.55;nan;95169.38;4894423;29;20060;-58
2022/10/06 08:37:25;;;;;;;7.85;4.57;;;;;;;24.79;nan;95170.47;4894782;29;20041;-58
2022/10/06 08:39:53;;;;;;;8.10;4.17;;;;;;;28.32;nan;95170.84;4894470;29;20045;-58
2022/10/06 08:42:35;;;;;;;7.55;4.07;;;;;;;28.95;nan;95165.03;4894528;29;20051;-60
2022/10/06 08:45:16;;;;;;;7.22;3.90;;;;;;;26.62;nan;95174.72;4894027;29;20057;-60
2022/10/06 08:47:59;;;;;;;7.43;3.63;;;;;;;28.71;nan;95173.91;4894274;29;20056;-58
2022/10/06 08:50:28;;;;;;;5.75;3.33;;;;;;;28.58;nan;95173.59;4894554;29;20052;-61
2022/10/06 08:53:18;;;;;;;7.53;4.03;;;;;;;23.03;nan;95177.91;4893956;29;20044;-59
2022/10/06 08:55:49;;;;;;;9.35;3.50;;;;;;;24.75;nan;95174.72;4893865;29;20053;-57
2022/10/06 08:58:21;;;;;;;9.40;4.10;;;;;;;22.21;nan;95187.66;4894316;29;20043;-57
2022/10/06 09:00:48;;;;;;;8.48;3.97;;;;;;;22.39;nan;95182.16;4893905;29;20045;-57
2022/10/06 09:03:22;;;;;;;8.68;3.70;;;;;;;21.22;nan;95188.22;4894191;29;20044;-57
2022/10/06 09:06:05;;;;;;;8.27;4.00;;;;;;;21.03;nan;95192.88;4893968;29;20052;-57
2022/10/06 09:08:54;;;;;;;11.07;5.10;;;;;;;17.69;nan;95197.56;4894035;29;20103;-59
2022/10/06 09:11:30;;;;;;;8.13;4.65;;;;;;;18.22;nan;95183.66;4887459;29;20231;-61
2022/10/06 09:14:16;;;;;;;6.82;4.25;;;;;;;18.10;nan;95195.47;4892651;29;20490;-61
2022/10/06 09:16:49;;;;;;;8.27;4.50;;;;;;;19.11;nan;95194.44;4893988;29;20053;-60
2022/10/06 09:19:44;;;;;;;8.83;4.30;;;;;;;19.41;nan;95192.41;4856469;29;20410;-59
2022/10/06 09:22:16;;;;;;;10.30;4.60;;;;;;;18.70;nan;95193.16;4855833;29;20143;-60
2022/10/06 09:24:50;;;;;;;8.35;4.57;;;;;;;19.79;nan;95194.50;4856610;29;20053;-60
2022/10/06 09:27:22;;;;;;;10.35;4.72;;;;;;;19.13;nan;95196.81;4856702;29;20483;-63
2022/10/06 09:29:50;;;;;;;9.27;4.80;;;;;;;19.73;nan;95193.50;4856405;29;20049;-61
2022/10/06 09:32:20;;;;;;;10.27;4.70;;;;;;;19.40;nan;95202.00;4855471;29;20049;-60
2022/10/06 09:34:55;;;;;;;8.43;4.57;;;;;;;19.13;nan;95202.38;4856359;29;20054;-62
2022/10/06 09:37:22;;;;;;;9.50;5.13;;;;;;;18.48;nan;95195.72;4856772;29;20045;-59
2022/10/06 09:39:51;;;;;;;9.48;5.18;;;;;;;16.93;nan;95201.09;4839974;29;20056;-58
2022/10/06 09:42:21;;;;;;;10.95;4.97;;;;;;;18.16;nan;95196.50;4856589;29;20497;-59
2022/10/06 09:44:56;;;;;;;9.30;4.70;;;;;;;19.48;nan;95188.66;4856179;29;20056;-59
2022/10/06 09:47:35;;;;;;;12.25;5.10;;;;;;;18.08;nan;95190.34;4856623;29;20097;-60
2022/10/06 09:50:14;;;;;;;8.95;5.03;;;;;;;19.10;nan;95190.13;4856363;29;20052;-60
2022/10/06 09:52:59;;;;;;;8.05;4.50;;;;;;;22.43;nan;95182.00;4856215;29;20487;-60
2022/10/06 09:55:32;;;;;;;9.38;4.38;;;;;;;22.47;nan;95196.63;4870648;29;20419;-60
2022/10/06 09:58:00;;;;;;;10.07;4.77;;;;;;;21.37;nan;95197.63;4856233;29;20679;-59
2022/10/06 10:00:34;;;;;;;9.00;4.80;;;;;;;19.38;nan;95198.09;4856685;29;20085;-58
2022/10/06 10:03:08;;;;;;;12.30;4.95;;;;;;;19.56;nan;95187.22;4859501;29;20387;-57
2022/10/06 10:05:49;;;;;;;7.95;4.60;;;;;;;19.52;nan;95189.34;4860492;29;20063;-58
2022/10/06 10:08:25;;;;;;;7.80;4.88;;;;;;;18.82;nan;95188.13;4858554;29;22267;-58
2022/10/06 10:13:58;;;;;;;6.97;3.92;;;;;;;19.63;nan;95195.34;4859459;29;20053;-58
2022/10/06 10:16:33;;;;;;;7.13;4.47;;;;;;;20.41;nan;95190.59;4859851;29;20076;-58
2022/10/06 10:19:04;;;;;;;7.13;4.15;;;;;;;21.01;nan;95189.78;4894189;29;20056;-60
2022/10/06 10:21:33;;;;;;;9.00;4.18;;;;;;;23.37;nan;95187.22;4896992;29;20047;-58
2022/10/06 10:24:05;;;;;;;8.33;4.30;;;;;;;21.28;nan;95189.19;4896725;29;20095;-60
2022/10/06 10:26:53;;;;;;;9.07;4.00;;;;;;;20.13;nan;95196.63;4897105;29;20041;-58
2022/10/06 10:29:49;;;;;;;8.95;4.40;;;;;;;20.71;nan;95195.56;4896176;29;20791;-57
2022/10/06 10:32:29;;;;;;;8.35;4.63;;;;;;;20.06;nan;95185.72;4895941;29;20831;-57
2022/10/06 10:34:57;;;;;;;8.25;4.78;;;;;;;20.09;nan;95186.84;4896473;29;20040;-60
2022/10/06 10:37:33;;;;;;;9.53;4.57;;;;;;;19.81;nan;95191.28;4896979;29;20512;-61
2022/10/06 10:40:17;;;;;;;10.73;4.60;;;;;;;20.17;nan;95195.75;4896599;29;20382;-60
2022/10/06 10:43:09;;;;;;;8.75;4.47;;;;;;;20.75;nan;95196.22;4896611;29;20047;-60
2022/10/06 10:45:43;;;;;;;10.52;4.50;;;;;;;20.60;nan;95194.34;4897085;29;20052;-60
2022/10/06 10:48:17;;;;;;;9.05;4.22;;;;;;;20.54;nan;95194.13;4895864;29;20076;-60
2022/10/06 10:50:50;;;;;;;10.30;4.60;;;;;;;20.84;nan;95191.94;4896381;29;20052;-60
2022/10/06 10:53:28;;;;;;;9.13;4.65;;;;;;;20.98;nan;95191.44;4896891;29;20044;-60
2022/10/06 10:55:55;;;;;;;9.05;4.75;;;;;;;20.77;nan;95187.41;4896216;29;20088;-60
2022/10/06 10:58:37;;;;;;;7.65;4.70;;;;;;;21.15;nan;95187.25;4896435;29;20087;-61
2022/10/06 11:01:16;;;;;;;9.23;4.35;;;;;;;19.67;nan;95190.47;4896292;29;20040;-61
2022/10/06 11:03:55;;;;;;;8.70;4.00;;;;;;;19.92;nan;95186.16;4896265;29;20482;-61
2022/10/06 11:06:53;;;;;;;7.53;4.07;;;;;;;20.47;nan;95186.78;4896163;29;20040;-62
2022/10/06 11:09:43;;;;;;;13.73;4.78;;;;;;;19.75;nan;95183.47;4895137;29;20937;-60
2022/10/06 11:12:18;;;;;;;7.13;4.60;;;;;;;19.06;nan;95189.44;4895688;29;20878;-63
2022/10/06 11:14:52;;;;;;;9.35;4.90;;;;;;;17.91;nan;95192.31;4894673;29;20052;-60
2022/10/06 11:17:32;;;;;;;8.90;4.70;;;;;;;17.37;nan;95201.03;4891958;29;20049;-61
2022/10/06 11:20:28;;;;;;;9.70;4.68;;;;;;;17.14;nan;95196.34;4877106;29;20059;-61
2022/10/06 11:23:13;;;;;;;11.40;5.70;;;;;;;16.13;nan;95191.78;4840384;29;20078;-60
2022/10/06 11:25:52;;;;;;;10.65;5.68;;;;;;;16.39;nan;95190.19;4877550;29;20059;-60
2022/10/06 11:28:31;;;;;;;10.85;5.10;;;;;;;16.80;nan;95183.47;4875662;29;20688;-60
2022/10/06 11:31:54;;;;;;;9.80;5.90;;;;;;;16.06;nan;95180.84;4877468;29;20045;-60
2022/10/06 11:34:21;;;;;;;8.95;5.22;;;;;;;16.44;nan;95184.16;4855300;29;20804;-59
2022/10/06 11:37:01;;;;;;;8.73;5.63;;;;;;;16.18;nan;95175.50;4855698;29;20059;-60
2022/10/06 11:39:40;;;;;;;9.57;5.50;;;;;;;16.55;nan;95175.66;4870288;29;20055;-61
2022/10/06 11:42:24;;;;;;;9.05;5.35;;;;;;;17.34;nan;95174.94;4876242;29;20200;-60
2022/10/06 11:45:12;;;;;;;9.00;4.90;;;;;;;16.80;nan;95179.94;4860109;29;20100;-59
2022/10/06 11:48:02;;;;;;;10.25;4.40;;;;;;;17.55;nan;95168.13;4877099;29;20064;-60
2022/10/06 11:50:37;;;;;;;13.05;4.97;;;;;;;18.03;nan;95153.94;4857612;29;21876;-60
2022/10/06 11:53:05;;;;;;;11.15;5.07;;;;;;;18.43;nan;95154.56;4872251;29;20491;-60
2022/10/06 11:55:32;;;;;;;12.88;5.60;;;;;;;17.69;nan;95157.91;4858263;29;20053;-62
2022/10/06 11:58:12;;;;;;;10.83;5.10;;;;;;;17.56;nan;95161.34;4857901;29;20394;-59
2022/10/06 12:01:01;;;;;;;9.00;5.72;;;;;;;17.39;nan;95162.53;4869429;29;20430;-60
2022/10/06 12:03:28;;;;;;;9.93;5.00;;;;;;;17.79;nan;95148.56;4872256;29;20406;-60
2022/10/06 12:05:55;;;;;;;11.00;5.00;;;;;;;17.67;nan;95163.13;4857922;29;20060;-60
2022/10/06 12:08:39;;;;;;;13.63;5.60;;;;;;;16.95;nan;95164.63;4857872;29;20044;-60
2022/10/06 12:11:38;;;;;;;11.47;5.10;;;;;;;16.51;nan;95161.06;4875844;29;20696;-60
2022/10/06 12:14:19;;;;;;;8.18;4.97;;;;;;;16.51;nan;95161.06;4876080;29;20049;-60
2022/10/06 12:17:20;;;;;;;8.85;5.20;;;;;;;16.62;nan;95158.91;4878090;29;20586;-60
2022/10/06 12:20:01;;;;;;;10.52;5.20;;;;;;;16.66;nan;95150.50;4894892;29;20050;-59
2022/10/06 12:22:38;;;;;;;7.90;4.95;;;;;;;16.77;nan;95151.09;4895142;29;20449;-60
2022/10/06 12:25:17;;;;;;;9.77;4.80;;;;;;;17.32;nan;95144.03;4894487;29;20040;-60